createdAt,value
2018-06-01T00:02:15.296Z,6.27
2018-06-01T00:04:42.722Z,8.03
2018-06-01T00:07:10.935Z,8.50
2018-06-01T00:09:38.372Z,9.10
2018-06-01T00:12:05.815Z,8.77
2018-06-01T00:14:34.428Z,8.70
2018-06-01T00:17:01.865Z,11.40
2018-06-01T00:19:29.307Z,10.87
2018-06-01T00:21:57.511Z,8.93
2018-06-01T00:24:24.943Z,8.40
2018-06-01T00:26:53.155Z,7.13
2018-06-01T00:29:20.596Z,10.43
2018-06-01T00:31:48.040Z,8.30
2018-06-01T00:34:16.244Z,8.60
2018-06-01T00:36:43.694Z,7.03
2018-06-01T00:39:11.141Z,7.10
2018-06-01T00:41:38.582Z,8.33
2018-06-01T00:44:06.789Z,6.90
2018-06-01T00:46:34.227Z,8.20
2018-06-01T00:49:01.662Z,7.70
2018-06-01T00:51:29.872Z,9.77
2018-06-01T00:53:57.306Z,10.73
2018-06-01T00:56:25.518Z,8.23
2018-06-01T00:58:52.963Z,10.50
2018-06-01T01:01:20.400Z,7.67
2018-06-01T01:03:47.851Z,10.63
2018-06-01T01:06:16.056Z,8.60
2018-06-01T01:08:43.503Z,10.57
2018-06-01T01:11:10.938Z,7.97
2018-06-01T01:13:39.143Z,7.57
2018-06-01T01:16:06.580Z,4.50
2018-06-01T01:18:34.028Z,8.33
2018-06-01T01:21:02.233Z,5.17
2018-06-01T01:23:29.675Z,8.23
2018-06-01T01:25:57.105Z,4.67
2018-06-01T01:28:25.316Z,7.97
2018-06-01T01:30:52.746Z,6.53
2018-06-01T01:33:20.960Z,5.37
2018-06-01T01:35:48.409Z,6.90
2018-06-01T01:38:15.856Z,4.93
2018-06-01T01:40:43.287Z,11.00
2018-06-01T01:43:11.505Z,6.90
2018-06-01T01:45:38.957Z,11.97
2018-06-01T01:48:06.396Z,6.40
2018-06-01T01:50:33.826Z,6.53
2018-06-01T01:53:02.039Z,9.57
2018-06-01T01:55:29.479Z,9.07
2018-06-01T01:57:56.933Z,7.80
2018-06-01T02:00:25.132Z,7.23
2018-06-01T02:02:52.587Z,8.67
2018-06-01T02:05:20.018Z,6.03
2018-06-01T02:07:48.218Z,8.10
2018-06-01T02:10:15.672Z,7.87
2018-06-01T02:12:43.110Z,7.80
2018-06-01T02:15:11.323Z,7.90
2018-06-01T02:17:38.757Z,8.67
2018-06-01T02:20:06.198Z,7.93
2018-06-01T02:22:34.398Z,5.60
2018-06-01T02:25:01.840Z,6.37
2018-06-01T02:27:29.279Z,5.10
2018-06-01T02:29:57.484Z,6.33
2018-06-01T02:32:24.928Z,7.13
2018-06-01T02:34:52.370Z,6.60
2018-06-01T02:37:20.578Z,6.00
2018-06-01T02:39:48.036Z,8.80
2018-06-01T02:42:15.463Z,4.97
2018-06-01T02:44:43.670Z,6.60
2018-06-01T02:47:11.111Z,10.77
2018-06-01T02:49:38.550Z,6.53
2018-06-01T02:52:06.757Z,7.60
2018-06-01T02:54:34.205Z,8.93
2018-06-01T02:57:01.643Z,6.07
2018-06-01T02:59:29.851Z,5.20
2018-06-01T03:01:57.294Z,8.60
2018-06-01T03:04:24.751Z,7.10
2018-06-01T03:07:17.990Z,5.57
2018-06-01T03:09:46.995Z,7.37
2018-06-01T03:12:14.438Z,6.43
2018-06-01T03:14:42.647Z,6.10
2018-06-01T03:17:10.091Z,4.67
2018-06-01T03:19:37.545Z,5.67
2018-06-01T03:22:04.988Z,7.90
2018-06-01T03:24:33.196Z,7.97
2018-06-01T03:27:00.639Z,7.93
2018-06-01T03:29:28.889Z,6.10
2018-06-01T03:31:57.098Z,5.27
2018-06-01T03:34:24.535Z,4.63
2018-06-01T03:36:51.981Z,4.77
2018-06-01T03:39:20.181Z,4.87
2018-06-01T03:41:47.631Z,6.60
2018-06-01T03:44:15.062Z,10.20
2018-06-01T03:46:43.275Z,5.77
2018-06-01T03:49:10.711Z,4.60
2018-06-01T03:51:38.918Z,7.33
2018-06-01T03:54:06.373Z,10.13
2018-06-01T03:56:33.812Z,8.47
2018-06-01T03:59:01.241Z,6.23
2018-06-01T04:01:29.465Z,10.73
2018-06-01T04:03:56.894Z,9.60
2018-06-01T04:06:24.339Z,7.80
2018-06-01T04:08:52.538Z,7.60
2018-06-01T04:11:19.986Z,8.23
2018-06-01T04:13:47.420Z,8.00
2018-06-01T04:16:15.635Z,10.63
2018-06-01T04:18:43.067Z,8.60
2018-06-01T04:21:10.524Z,7.30
2018-06-01T04:23:38.732Z,6.10
2018-06-01T04:26:06.171Z,14.03
2018-06-01T04:28:33.614Z,8.33
2018-06-01T04:31:01.820Z,7.40
2018-06-01T04:33:29.262Z,8.73
2018-06-01T04:35:56.705Z,8.87
2018-06-01T04:38:24.138Z,9.37
2018-06-01T04:40:51.590Z,6.93
2018-06-01T04:43:19.024Z,7.20
2018-06-01T04:45:46.458Z,8.83
2018-06-01T04:48:13.907Z,9.03
2018-06-01T04:50:41.334Z,14.70
2018-06-01T04:53:09.555Z,7.93
2018-06-01T04:55:36.996Z,8.50
2018-06-01T04:58:04.434Z,9.47
2018-06-01T05:00:31.876Z,10.53
2018-06-01T05:03:00.088Z,10.33
2018-06-01T05:05:27.542Z,9.00
2018-06-01T05:07:54.974Z,8.97
2018-06-01T05:10:23.172Z,8.20
2018-06-01T05:12:50.628Z,10.67
2018-06-01T05:15:18.061Z,7.03
2018-06-01T05:17:46.266Z,6.73
2018-06-01T05:20:13.700Z,6.77
2018-06-01T05:22:41.143Z,6.17
2018-06-01T05:25:09.350Z,6.67
2018-06-01T05:27:36.800Z,6.83
2018-06-01T05:30:04.226Z,7.70
2018-06-01T05:32:32.443Z,6.90
2018-06-01T05:34:59.875Z,7.70
2018-06-01T05:37:28.086Z,7.13
2018-06-01T05:39:55.529Z,9.53
2018-06-01T05:42:22.971Z,7.83
2018-06-01T05:44:50.409Z,7.03
2018-06-01T05:47:17.872Z,7.63
2018-06-01T05:49:45.283Z,5.63
2018-06-01T05:52:12.737Z,5.63
2018-06-01T05:54:40.175Z,6.40
2018-06-01T05:57:07.919Z,10.93
2018-06-01T05:59:35.374Z,7.50
2018-06-01T06:02:03.571Z,9.87
2018-06-01T06:04:31.051Z,9.27
2018-06-01T06:06:58.451Z,6.07
2018-06-01T06:09:26.659Z,7.20
2018-06-01T06:11:54.102Z,8.90
2018-06-01T06:14:21.559Z,8.50
2018-06-01T06:16:48.999Z,9.00
2018-06-01T06:19:17.215Z,5.53
2018-06-01T06:21:44.653Z,6.50
2018-06-01T06:24:12.091Z,6.33
2018-06-01T06:26:40.298Z,6.87
2018-06-01T06:29:07.744Z,6.97
2018-06-01T06:31:35.197Z,8.00
2018-06-01T06:34:03.386Z,8.10
2018-06-01T06:36:30.819Z,7.67
2018-06-01T06:38:58.262Z,8.60
2018-06-01T06:41:26.466Z,6.53
2018-06-01T06:43:53.907Z,7.90
2018-06-01T06:46:21.342Z,6.83
2018-06-01T06:48:49.566Z,7.23
2018-06-01T06:51:17.038Z,7.03
2018-06-01T06:53:44.478Z,6.30
2018-06-01T06:56:11.906Z,9.27
2018-06-01T06:58:40.115Z,6.93
2018-06-01T07:01:07.558Z,6.13
2018-06-01T07:03:35.000Z,7.83
2018-06-01T07:06:03.195Z,7.90
2018-06-01T07:08:30.656Z,8.00
2018-06-01T07:10:58.098Z,10.83
2018-06-01T07:13:25.584Z,10.63
2018-06-01T07:15:53.759Z,9.87
2018-06-01T07:18:21.195Z,9.10
2018-06-01T07:20:48.651Z,8.87
2018-06-01T07:23:16.182Z,10.80
2018-06-01T07:25:44.391Z,14.23
2018-06-01T07:28:11.834Z,9.60
2018-06-01T07:30:39.278Z,8.53
2018-06-01T07:33:07.482Z,7.70
2018-06-01T07:35:34.939Z,8.73
2018-06-01T07:38:02.371Z,10.70
2018-06-01T07:40:29.822Z,7.60
2018-06-01T07:42:58.028Z,8.00
2018-06-01T07:45:25.469Z,8.47
2018-06-01T07:47:52.900Z,7.03
2018-06-01T07:50:21.118Z,7.17
2018-06-01T07:52:48.545Z,8.23
2018-06-01T07:55:16.763Z,6.80
2018-06-01T07:57:44.203Z,7.63
2018-06-01T08:00:11.651Z,6.07
2018-06-01T08:02:39.097Z,5.83
2018-06-01T08:05:06.545Z,6.20
2018-06-01T08:07:34.756Z,5.23
2018-06-01T08:10:02.202Z,5.47
2018-06-01T08:12:29.641Z,5.80
2018-06-01T08:14:57.849Z,6.97
2018-06-01T08:17:25.299Z,8.50
2018-06-01T08:19:52.753Z,6.07
2018-06-01T08:22:20.187Z,7.30
2018-06-01T08:24:47.656Z,5.40
2018-06-01T08:27:15.110Z,5.50
2018-06-01T08:29:42.542Z,4.90
2018-06-01T08:32:10.757Z,6.97
2018-06-01T08:34:38.189Z,5.33
2018-06-01T08:37:06.407Z,5.30
2018-06-01T08:39:33.846Z,9.93
2018-06-01T08:42:01.290Z,5.30
2018-06-01T08:44:28.726Z,6.97
2018-06-01T08:46:56.939Z,5.17
2018-06-01T08:49:24.378Z,4.50
2018-06-01T08:51:51.823Z,5.77
2018-06-01T08:54:19.265Z,7.53
2018-06-01T08:56:46.707Z,4.93
2018-06-01T08:59:14.188Z,5.47
2018-06-01T09:01:41.584Z,5.10
2018-06-01T09:04:09.020Z,6.30
2018-06-01T09:06:36.465Z,6.10
2018-06-01T09:09:07.279Z,6.97
2018-06-01T09:11:34.725Z,5.13
2018-06-01T09:14:02.184Z,7.90
2018-06-01T09:16:29.640Z,4.00
2018-06-01T09:18:57.062Z,5.60
2018-06-01T09:21:24.510Z,4.77
2018-06-01T09:23:51.948Z,5.17
2018-06-01T09:26:19.394Z,6.00
2018-06-01T09:28:47.600Z,5.17
2018-06-01T09:31:15.053Z,7.10
2018-06-01T09:33:42.478Z,3.90
2018-06-01T09:36:10.691Z,6.03
2018-06-01T09:38:38.135Z,4.93
2018-06-01T09:41:05.571Z,4.50
2018-06-01T09:43:33.781Z,5.30
2018-06-01T09:46:01.223Z,4.07
2018-06-01T09:48:28.666Z,6.07
2018-06-01T09:50:56.861Z,4.60
2018-06-01T09:53:24.312Z,4.23
2018-06-01T09:55:51.761Z,4.93
2018-06-01T09:58:19.205Z,7.83
2018-06-01T10:00:53.147Z,5.10
2018-06-01T10:03:20.590Z,6.23
2018-06-01T10:05:48.030Z,4.47
2018-06-01T10:08:16.234Z,5.00
2018-06-01T10:10:43.675Z,9.20
2018-06-01T10:13:11.124Z,3.67
2018-06-01T10:15:39.380Z,5.13
2018-06-01T10:18:06.777Z,4.40
2018-06-01T10:20:35.118Z,3.80
2018-06-01T10:23:03.333Z,4.90
2018-06-01T10:25:30.770Z,4.67
2018-06-01T10:27:58.976Z,5.33
2018-06-01T10:30:26.421Z,6.60
2018-06-01T10:32:53.872Z,3.90
2018-06-01T10:35:21.298Z,4.80
2018-06-01T10:37:49.516Z,4.43
2018-06-01T10:40:16.953Z,5.37
2018-06-01T10:42:44.400Z,5.10
2018-06-01T10:45:12.612Z,4.60
2018-06-01T10:47:40.051Z,5.40
2018-06-01T10:50:07.492Z,3.80
2018-06-01T10:52:35.686Z,4.80
2018-06-01T10:55:03.152Z,5.83
2018-06-01T10:57:30.574Z,4.03
2018-06-01T10:59:58.782Z,4.13
2018-06-01T11:02:26.214Z,6.67
2018-06-01T11:04:53.659Z,3.80
2018-06-01T11:07:21.861Z,5.60
2018-06-01T11:09:49.307Z,3.37
2018-06-01T11:12:16.737Z,6.37
2018-06-01T11:14:44.955Z,6.53
2018-06-01T11:17:12.398Z,4.20
2018-06-01T11:19:39.858Z,4.77
2018-06-01T11:22:07.296Z,4.80
2018-06-01T11:24:35.499Z,5.00
2018-06-01T11:27:02.955Z,4.67
2018-06-01T11:29:31.144Z,3.30
2018-06-01T11:31:58.593Z,3.50
2018-06-01T11:34:26.038Z,5.50
2018-06-01T11:36:53.471Z,4.63
2018-06-01T11:39:21.675Z,4.50
2018-06-01T11:41:49.106Z,3.60
2018-06-01T11:44:17.322Z,3.27
2018-06-01T11:46:44.767Z,4.00
2018-06-01T11:49:12.206Z,4.80
2018-06-01T11:51:39.645Z,3.10
2018-06-01T11:54:07.867Z,5.63
2018-06-01T11:56:35.307Z,5.87
2018-06-01T11:59:02.748Z,5.20
2018-06-01T12:01:30.956Z,3.30
2018-06-01T12:03:58.393Z,3.67
2018-06-01T12:06:25.839Z,6.73
2018-06-01T12:08:53.275Z,6.57
2018-06-01T12:11:20.718Z,5.60
2018-06-01T12:13:48.152Z,3.73
2018-06-01T12:16:15.589Z,6.23
2018-06-01T12:18:43.027Z,3.93
2018-06-01T12:21:10.470Z,4.30
2018-06-01T12:23:38.678Z,3.50
2018-06-01T12:26:06.127Z,3.70
2018-06-01T12:28:33.583Z,3.57
2018-06-01T12:31:01.029Z,4.03
2018-06-01T12:33:28.467Z,3.80
2018-06-01T12:35:56.686Z,4.90
2018-06-01T12:38:24.548Z,3.53
2018-06-01T12:40:51.995Z,4.03
2018-06-01T12:43:19.428Z,3.87
2018-06-01T12:45:47.639Z,3.50
2018-06-01T12:48:15.074Z,4.90
2018-06-01T12:50:42.524Z,4.33
2018-06-01T12:53:10.723Z,4.47
2018-06-01T12:55:38.176Z,4.63
2018-06-01T12:58:05.609Z,5.33
2018-06-01T13:00:33.831Z,4.23
2018-06-01T13:03:01.271Z,3.80
2018-06-01T13:05:28.710Z,3.83
2018-06-01T13:07:56.162Z,5.20
2018-06-01T13:10:24.366Z,3.80
2018-06-01T13:12:51.821Z,7.30
2018-06-01T13:15:19.275Z,5.50
2018-06-01T13:17:46.710Z,3.90
2018-06-01T13:20:14.166Z,4.33
2018-06-01T13:22:44.187Z,5.53
2018-06-01T13:25:11.630Z,4.70
2018-06-01T13:27:39.838Z,3.47
2018-06-01T13:30:07.271Z,5.83
2018-06-01T13:32:35.492Z,5.50
2018-06-01T13:35:02.924Z,4.87
2018-06-01T13:37:30.373Z,6.57
2018-06-01T13:39:57.807Z,4.03
2018-06-01T13:42:26.024Z,4.50
2018-06-01T13:44:53.465Z,3.00
2018-06-01T13:47:20.902Z,5.17
2018-06-01T13:49:49.107Z,4.50
2018-06-01T13:52:16.553Z,3.47
2018-06-01T13:54:43.994Z,46.47
2018-06-01T13:57:12.203Z,5.93
2018-06-01T13:59:39.636Z,5.70
2018-06-01T14:02:07.088Z,4.37
2018-06-01T14:04:35.283Z,3.80
2018-06-01T14:07:02.736Z,6.90
2018-06-01T14:09:30.170Z,4.40
2018-06-01T14:11:58.371Z,3.30
2018-06-01T14:14:25.822Z,3.20
2018-06-01T14:16:53.259Z,3.83
2018-06-01T14:19:21.502Z,3.53
2018-06-01T14:21:48.911Z,3.37
2018-06-01T14:24:16.360Z,3.50
2018-06-01T14:26:43.799Z,3.20
2018-06-01T14:29:12.010Z,3.80
2018-06-01T14:31:39.454Z,3.40
2018-06-01T14:34:06.904Z,2.67
2018-06-01T14:36:34.334Z,3.33
2018-06-01T14:39:02.558Z,2.67
2018-06-01T14:41:30.000Z,2.80
2018-06-01T14:43:57.438Z,2.57
2018-06-01T14:46:25.645Z,3.70
2018-06-01T14:48:53.101Z,3.30
2018-06-01T14:51:20.539Z,2.20
2018-06-01T14:53:47.991Z,4.93
2018-06-01T14:56:16.191Z,2.67
2018-06-01T14:58:43.639Z,2.40
2018-06-01T15:01:11.075Z,2.57
2018-06-01T15:03:39.299Z,2.60
2018-06-01T15:06:06.737Z,3.00
2018-06-01T15:08:34.221Z,2.77
2018-06-01T15:11:01.607Z,3.07
2018-06-01T15:13:29.823Z,2.73
2018-06-01T15:15:57.264Z,2.70
2018-06-01T15:18:24.707Z,2.50
2018-06-01T15:20:52.911Z,4.40
2018-06-01T15:23:20.367Z,2.73
2018-06-01T15:25:47.817Z,3.40
2018-06-01T15:28:15.248Z,2.40
2018-06-01T15:30:43.461Z,2.60
2018-06-01T15:33:10.901Z,4.93
2018-06-01T15:35:38.351Z,2.33
2018-06-01T15:38:06.551Z,4.57
2018-06-01T15:40:33.996Z,3.50
2018-06-01T15:43:01.455Z,3.40
2018-06-01T15:45:29.645Z,2.60
2018-06-01T15:47:57.081Z,5.63
2018-06-01T15:50:24.518Z,3.50
2018-06-01T15:52:52.723Z,3.13
2018-06-01T15:55:20.165Z,5.33
2018-06-01T15:57:47.602Z,4.53
2018-06-01T16:00:15.815Z,3.20
2018-06-01T16:02:43.522Z,2.63
2018-06-01T16:05:10.966Z,5.67
2018-06-01T16:07:38.402Z,5.57
2018-06-01T16:10:05.848Z,4.10
2018-06-01T16:12:33.303Z,4.80
2018-06-01T16:15:00.739Z,3.90
2018-06-01T16:17:28.942Z,3.27
2018-06-01T16:19:56.395Z,3.60
2018-06-01T16:22:23.834Z,3.90
2018-06-01T16:24:51.283Z,4.20
2018-06-01T16:27:19.488Z,4.10
2018-06-01T16:29:46.936Z,4.50
2018-06-01T16:32:14.371Z,4.00
2018-06-01T16:34:42.579Z,3.40
2018-06-01T16:37:10.026Z,3.93
2018-06-01T16:39:37.457Z,4.63
2018-06-01T16:42:05.670Z,2.83
2018-06-01T16:44:33.110Z,4.33
2018-06-01T16:47:00.562Z,6.20
2018-06-01T16:49:27.997Z,3.77
2018-06-01T16:51:56.205Z,3.30
2018-06-01T16:54:23.676Z,5.33
2018-06-01T16:56:51.849Z,3.10
2018-06-01T16:59:19.281Z,3.10
2018-06-01T17:01:46.723Z,6.13
2018-06-01T17:04:14.926Z,3.80
2018-06-01T17:06:42.379Z,4.40
2018-06-01T17:09:09.882Z,2.80
2018-06-01T17:11:37.326Z,3.03
2018-06-01T17:14:04.772Z,2.77
2018-06-01T17:16:32.213Z,3.40
2018-06-01T17:18:59.668Z,2.63
2018-06-01T17:21:27.129Z,2.70
2018-06-01T17:23:54.564Z,4.00
2018-06-01T17:26:22.778Z,4.00
2018-06-01T17:28:50.210Z,3.23
2018-06-01T17:31:17.660Z,4.00
2018-06-01T17:33:45.087Z,4.50
2018-06-01T17:36:13.297Z,4.83
2018-06-01T17:38:40.731Z,4.10
2018-06-01T17:41:08.942Z,3.87
2018-06-01T17:43:36.383Z,4.73
2018-06-01T17:46:03.846Z,4.70
2018-06-01T17:48:31.293Z,9.80
2018-06-01T17:50:58.721Z,6.17
2018-06-01T17:53:26.170Z,4.57
2018-06-01T17:55:53.610Z,3.47
2018-06-01T17:58:21.058Z,3.47
2018-06-01T18:00:48.507Z,3.20
2018-06-01T18:03:15.951Z,5.13
2018-06-01T18:05:43.388Z,4.97
2018-06-01T18:08:11.602Z,5.50
2018-06-01T18:10:39.042Z,5.43
2018-06-01T18:13:06.497Z,4.13
2018-06-01T18:15:33.936Z,3.57
2018-06-01T18:18:01.378Z,3.70
2018-06-01T18:20:29.578Z,3.40
2018-06-01T18:22:57.030Z,3.60
2018-06-01T18:25:24.463Z,4.13
2018-06-01T18:27:52.675Z,4.40
2018-06-01T18:30:20.106Z,5.53
2018-06-01T18:32:48.319Z,5.30
2018-06-01T18:35:15.750Z,3.27
2018-06-01T18:37:43.207Z,4.23
2018-06-01T18:40:10.645Z,5.30
2018-06-01T18:42:38.854Z,3.87
2018-06-01T18:45:06.295Z,3.50
2018-06-01T18:47:33.747Z,3.80
2018-06-01T18:50:01.183Z,3.93
2018-06-01T18:52:28.618Z,5.50
2018-06-01T18:54:56.059Z,3.20
2018-06-01T18:57:23.511Z,6.90
2018-06-01T18:59:50.951Z,3.20
2018-06-01T19:02:18.410Z,3.60
2018-06-01T19:04:45.846Z,3.20
2018-06-01T19:07:13.280Z,4.90
2018-06-01T19:09:40.722Z,3.20
2018-06-01T19:12:08.189Z,5.03
2018-06-01T19:14:35.654Z,3.80
2018-06-01T19:17:03.060Z,5.30
2018-06-01T19:19:30.504Z,3.50
2018-06-01T19:21:57.935Z,4.10
2018-06-01T19:24:26.143Z,4.90
2018-06-01T19:26:53.578Z,4.20
2018-06-01T19:29:21.024Z,4.30
2018-06-01T19:31:49.227Z,4.20
2018-06-01T19:34:16.670Z,4.23
2018-06-01T19:36:44.104Z,4.47
2018-06-01T19:39:12.319Z,4.27
2018-06-01T19:41:39.750Z,5.93
2018-06-01T19:44:07.963Z,3.63
2018-06-01T19:46:35.398Z,4.27
2018-06-01T19:49:02.842Z,6.57
2018-06-01T19:51:30.282Z,4.23
2018-06-01T19:53:58.499Z,7.40
2018-06-01T19:56:25.937Z,6.40
2018-06-01T19:58:53.380Z,3.33
2018-06-01T20:01:21.587Z,4.17
2018-06-01T20:03:49.034Z,4.73
2018-06-01T20:06:16.471Z,4.10
2018-06-01T20:08:44.686Z,5.13
2018-06-01T20:11:12.123Z,9.60
2018-06-01T20:13:39.578Z,10.53
2018-06-01T20:16:07.038Z,12.53
2018-06-01T20:18:34.477Z,9.40
2018-06-01T20:21:02.694Z,7.37
2018-06-01T20:23:30.138Z,7.00
2018-06-01T20:25:57.579Z,6.77
2018-06-01T20:28:25.004Z,7.43
2018-06-01T20:30:52.451Z,8.87
2018-06-01T20:33:19.887Z,8.00
2018-06-01T20:35:47.330Z,8.73
2018-06-01T20:38:14.781Z,8.43
2018-06-01T20:40:42.221Z,31.37
2018-06-01T20:45:43.545Z,21.47
2018-06-01T20:48:10.984Z,18.20
2018-06-01T20:50:38.442Z,11.90
2018-06-01T20:53:05.890Z,26.27
2018-06-01T20:55:33.345Z,39.90
2018-06-01T20:58:00.784Z,42.83
2018-06-01T21:00:28.237Z,47.17
2018-06-01T21:02:55.728Z,55.90
2018-06-01T21:05:23.179Z,60.57
2018-06-01T21:07:50.617Z,19.10
2018-06-01T21:10:18.071Z,17.33
2018-06-01T21:12:45.923Z,25.33
2018-06-01T21:15:13.383Z,29.13
2018-06-01T21:17:40.827Z,21.83
2018-06-01T21:20:09.032Z,13.50
2018-06-01T21:22:36.483Z,12.43
2018-06-01T21:25:03.923Z,9.90
2018-06-01T21:27:31.372Z,9.10
2018-06-01T21:29:59.572Z,6.97
2018-06-01T21:32:27.016Z,8.13
2018-06-01T21:34:54.456Z,6.90
2018-06-01T21:37:22.673Z,6.97
2018-06-01T21:39:50.106Z,4.13
2018-06-01T21:42:17.560Z,5.70
2018-06-01T21:44:44.991Z,6.17
2018-06-01T21:47:13.199Z,7.43
2018-06-01T21:49:40.639Z,4.53
2018-06-01T21:52:08.855Z,10.70
2018-06-01T21:54:36.327Z,10.97
2018-06-01T21:57:03.743Z,11.07
2018-06-01T21:59:31.182Z,15.77
2018-06-01T22:01:59.399Z,8.07
2018-06-01T22:04:26.835Z,4.60
2018-06-01T22:06:54.275Z,5.97
2018-06-01T22:09:22.478Z,5.67
2018-06-01T22:11:49.923Z,4.20
2018-06-01T22:14:17.358Z,4.47
2018-06-01T22:16:45.566Z,5.23
2018-06-01T22:19:12.999Z,4.30
2018-06-01T22:21:40.438Z,3.37
2018-06-01T22:24:08.641Z,4.13
2018-06-01T22:26:36.104Z,5.17
2018-06-01T22:29:03.535Z,10.70
2018-06-01T22:31:31.735Z,5.13
2018-06-01T22:33:59.178Z,4.33
2018-06-01T22:36:26.619Z,4.83
2018-06-01T22:38:54.832Z,5.43
2018-06-01T22:41:22.271Z,4.07
2018-06-01T22:43:49.712Z,9.00
2018-06-01T22:46:17.915Z,5.80
2018-06-01T22:48:45.367Z,4.00
2018-06-01T22:51:12.814Z,5.73
2018-06-01T22:53:40.255Z,4.47
2018-06-01T22:56:08.459Z,8.40
2018-06-01T22:58:35.907Z,4.10
2018-06-01T23:01:03.339Z,5.33
2018-06-01T23:03:31.560Z,4.87
2018-06-01T23:05:58.992Z,8.23
2018-06-01T23:08:27.198Z,12.60
2018-06-01T23:10:54.642Z,16.03
2018-06-01T23:13:22.103Z,14.17
2018-06-01T23:15:49.537Z,18.33
2018-06-01T23:18:16.998Z,9.70
2018-06-01T23:20:44.470Z,5.80
2018-06-01T23:23:11.902Z,6.20
2018-06-01T23:25:40.107Z,5.23
2018-06-01T23:28:07.561Z,7.30
2018-06-01T23:30:35.006Z,4.77
2018-06-01T23:33:02.457Z,5.77
2018-06-01T23:35:29.903Z,5.57
2018-06-01T23:37:58.115Z,3.83
2018-06-01T23:40:25.555Z,5.90
2018-06-01T23:42:53.003Z,3.97
2018-06-01T23:45:20.445Z,4.47
2018-06-01T23:47:48.654Z,5.20
2018-06-01T23:50:16.102Z,4.70
2018-06-01T23:52:43.546Z,4.30
2018-06-01T23:55:11.022Z,13.37
2018-06-01T23:57:39.202Z,5.13
